sensor_id;sensor_type;location;lat;lon;timestamp;temperature;humidity
38938;DHT22;24727;51.974;20.868;2023-09-18T00:00:04;16.20;1.00
38938;DHT22;24727;51.974;20.868;2023-09-18T00:02:35;16.20;1.00
38938;DHT22;24727;51.974;20.868;2023-09-18T00:05:01;16.20;1.00
38938;DHT22;24727;51.974;20.868;2023-09-18T00:07:28;16.10;1.00
38938;DHT22;24727;51.974;20.868;2023-09-18T00:09:54;16.00;1.00
38938;DHT22;24727;51.974;20.868;2023-09-18T00:12:20;15.90;1.00
38938;DHT22;24727;51.974;20.868;2023-09-18T00:14:50;15.90;1.00
38938;DHT22;24727;51.974;20.868;2023-09-18T00:17:16;15.90;1.00
38938;DHT22;24727;51.974;20.868;2023-09-18T00:19:43;15.90;1.00
38938;DHT22;24727;51.974;20.868;2023-09-18T00:22:09;15.90;1.00
38938;DHT22;24727;51.974;20.868;2023-09-18T00:24:35;15.90;1.00
38938;DHT22;24727;51.974;20.868;2023-09-18T00:27:01;15.90;1.00
38938;DHT22;24727;51.974;20.868;2023-09-18T00:29:27;15.90;1.00
38938;DHT22;24727;51.974;20.868;2023-09-18T00:31:53;15.80;1.00
38938;DHT22;24727;51.974;20.868;2023-09-18T00:34:19;15.90;1.00
38938;DHT22;24727;51.974;20.868;2023-09-18T00:36:45;15.90;1.00
38938;DHT22;24727;51.974;20.868;2023-09-18T00:39:18;15.90;1.00
38938;DHT22;24727;51.974;20.868;2023-09-18T00:41:44;15.80;1.00
38938;DHT22;24727;51.974;20.868;2023-09-18T00:44:15;15.70;1.00
38938;DHT22;24727;51.974;20.868;2023-09-18T00:46:43;15.70;1.00
38938;DHT22;24727;51.974;20.868;2023-09-18T00:49:09;15.70;1.00
38938;DHT22;24727;51.974;20.868;2023-09-18T00:51:36;15.70;1.00
38938;DHT22;24727;51.974;20.868;2023-09-18T00:54:02;15.80;1.00
38938;DHT22;24727;51.974;20.868;2023-09-18T00:56:28;15.80;1.00
38938;DHT22;24727;51.974;20.868;2023-09-18T00:58:54;15.80;1.00
38938;DHT22;24727;51.974;20.868;2023-09-18T01:01:20;15.80;1.00
38938;DHT22;24727;51.974;20.868;2023-09-18T01:03:50;15.80;1.00
38938;DHT22;24727;51.974;20.868;2023-09-18T01:06:17;15.80;1.00
38938;DHT22;24727;51.974;20.868;2023-09-18T01:08:45;15.80;1.00
38938;DHT22;24727;51.974;20.868;2023-09-18T01:11:36;15.80;1.00
38938;DHT22;24727;51.974;20.868;2023-09-18T01:17:00;15.70;1.00
38938;DHT22;24727;51.974;20.868;2023-09-18T01:19:40;15.70;1.00
38938;DHT22;24727;51.974;20.868;2023-09-18T01:22:07;15.70;1.00
38938;DHT22;24727;51.974;20.868;2023-09-18T01:24:35;15.70;1.00
38938;DHT22;24727;51.974;20.868;2023-09-18T01:27:06;15.70;1.00
38938;DHT22;24727;51.974;20.868;2023-09-18T01:29:36;15.70;1.00
38938;DHT22;24727;51.974;20.868;2023-09-18T01:32:05;15.70;1.00
38938;DHT22;24727;51.974;20.868;2023-09-18T01:34:37;15.70;1.00
38938;DHT22;24727;51.974;20.868;2023-09-18T01:37:09;15.60;1.00
38938;DHT22;24727;51.974;20.868;2023-09-18T01:39:36;15.60;1.00
38938;DHT22;24727;51.974;20.868;2023-09-18T01:42:04;15.70;1.00
38938;DHT22;24727;51.974;20.868;2023-09-18T01:44:35;15.70;1.00
38938;DHT22;24727;51.974;20.868;2023-09-18T01:47:04;15.70;1.00
38938;DHT22;24727;51.974;20.868;2023-09-18T01:49:39;15.80;1.00
38938;DHT22;24727;51.974;20.868;2023-09-18T01:52:07;15.70;1.00
38938;DHT22;24727;51.974;20.868;2023-09-18T01:54:34;15.70;1.00
38938;DHT22;24727;51.974;20.868;2023-09-18T01:57:02;15.70;1.00
38938;DHT22;24727;51.974;20.868;2023-09-18T01:59:29;15.80;1.00
38938;DHT22;24727;51.974;20.868;2023-09-18T02:01:56;15.80;1.00
38938;DHT22;24727;51.974;20.868;2023-09-18T02:04:23;15.70;1.00
38938;DHT22;24727;51.974;20.868;2023-09-18T02:06:50;15.80;1.00
38938;DHT22;24727;51.974;20.868;2023-09-18T02:09:17;15.70;1.00
38938;DHT22;24727;51.974;20.868;2023-09-18T02:11:46;15.50;1.00
38938;DHT22;24727;51.974;20.868;2023-09-18T02:14:13;15.60;1.00
38938;DHT22;24727;51.974;20.868;2023-09-18T02:16:41;15.60;1.00
38938;DHT22;24727;51.974;20.868;2023-09-18T02:19:08;15.50;1.00
38938;DHT22;24727;51.974;20.868;2023-09-18T02:21:35;15.60;1.00
38938;DHT22;24727;51.974;20.868;2023-09-18T02:24:02;15.60;1.00
38938;DHT22;24727;51.974;20.868;2023-09-18T02:26:28;15.60;1.00
38938;DHT22;24727;51.974;20.868;2023-09-18T02:28:58;15.60;1.00
38938;DHT22;24727;51.974;20.868;2023-09-18T02:31:24;15.50;1.00
38938;DHT22;24727;51.974;20.868;2023-09-18T02:33:50;15.50;1.00
38938;DHT22;24727;51.974;20.868;2023-09-18T02:36:17;15.60;1.00
38938;DHT22;24727;51.974;20.868;2023-09-18T02:38:43;15.60;1.00
38938;DHT22;24727;51.974;20.868;2023-09-18T02:41:09;15.60;1.00
38938;DHT22;24727;51.974;20.868;2023-09-18T02:43:35;15.60;1.00
38938;DHT22;24727;51.974;20.868;2023-09-18T02:46:05;15.60;1.00
38938;DHT22;24727;51.974;20.868;2023-09-18T02:48:31;15.50;1.00
38938;DHT22;24727;51.974;20.868;2023-09-18T02:51:01;15.50;1.00
38938;DHT22;24727;51.974;20.868;2023-09-18T02:53:28;15.50;1.00
38938;DHT22;24727;51.974;20.868;2023-09-18T02:55:57;15.60;1.00
38938;DHT22;24727;51.974;20.868;2023-09-18T02:58:25;15.60;1.00
38938;DHT22;24727;51.974;20.868;2023-09-18T03:00:52;15.60;1.00
38938;DHT22;24727;51.974;20.868;2023-09-18T03:03:22;15.60;1.00
38938;DHT22;24727;51.974;20.868;2023-09-18T03:05:48;15.50;1.00
38938;DHT22;24727;51.974;20.868;2023-09-18T03:08:14;15.60;1.00
38938;DHT22;24727;51.974;20.868;2023-09-18T03:10:43;15.50;1.00
38938;DHT22;24727;51.974;20.868;2023-09-18T03:13:10;15.50;1.00
38938;DHT22;24727;51.974;20.868;2023-09-18T03:15:37;15.60;1.00
38938;DHT22;24727;51.974;20.868;2023-09-18T03:18:04;15.50;1.00
38938;DHT22;24727;51.974;20.868;2023-09-18T03:20:31;15.50;1.00
38938;DHT22;24727;51.974;20.868;2023-09-18T03:22:59;15.50;1.00
38938;DHT22;24727;51.974;20.868;2023-09-18T03:25:25;15.60;1.00
38938;DHT22;24727;51.974;20.868;2023-09-18T03:27:53;15.60;1.00
38938;DHT22;24727;51.974;20.868;2023-09-18T03:30:21;15.60;1.00
38938;DHT22;24727;51.974;20.868;2023-09-18T03:32:48;15.60;1.00
38938;DHT22;24727;51.974;20.868;2023-09-18T03:35:14;15.70;1.00
38938;DHT22;24727;51.974;20.868;2023-09-18T03:38:02;15.70;1.00
38938;DHT22;24727;51.974;20.868;2023-09-18T03:40:29;15.70;1.00
38938;DHT22;24727;51.974;20.868;2023-09-18T03:42:55;15.70;1.00
38938;DHT22;24727;51.974;20.868;2023-09-18T03:45:27;15.70;1.00
38938;DHT22;24727;51.974;20.868;2023-09-18T03:47:53;15.60;1.00
38938;DHT22;24727;51.974;20.868;2023-09-18T03:50:19;15.60;1.00
38938;DHT22;24727;51.974;20.868;2023-09-18T03:52:45;15.60;1.00
38938;DHT22;24727;51.974;20.868;2023-09-18T03:55:11;15.60;1.00
38938;DHT22;24727;51.974;20.868;2023-09-18T03:57:39;15.60;1.00
38938;DHT22;24727;51.974;20.868;2023-09-18T04:00:06;15.60;1.00
38938;DHT22;24727;51.974;20.868;2023-09-18T04:02:33;15.50;1.00
38938;DHT22;24727;51.974;20.868;2023-09-18T04:05:00;15.50;1.00
38938;DHT22;24727;51.974;20.868;2023-09-18T04:07:27;15.60;1.00
38938;DHT22;24727;51.974;20.868;2023-09-18T04:09:54;15.60;1.00
38938;DHT22;24727;51.974;20.868;2023-09-18T04:12:20;15.70;1.00
38938;DHT22;24727;51.974;20.868;2023-09-18T04:14:46;15.70;1.00
38938;DHT22;24727;51.974;20.868;2023-09-18T04:17:12;15.70;1.00
38938;DHT22;24727;51.974;20.868;2023-09-18T04:19:38;15.70;1.00
38938;DHT22;24727;51.974;20.868;2023-09-18T04:22:04;15.60;1.00
38938;DHT22;24727;51.974;20.868;2023-09-18T04:24:30;15.60;1.00
38938;DHT22;24727;51.974;20.868;2023-09-18T04:27:08;15.60;1.00
38938;DHT22;24727;51.974;20.868;2023-09-18T04:29:34;15.60;1.00
38938;DHT22;24727;51.974;20.868;2023-09-18T04:32:02;15.50;1.00
38938;DHT22;24727;51.974;20.868;2023-09-18T04:34:29;15.50;1.00
38938;DHT22;24727;51.974;20.868;2023-09-18T04:36:55;15.50;1.00
38938;DHT22;24727;51.974;20.868;2023-09-18T04:39:21;15.50;1.00
38938;DHT22;24727;51.974;20.868;2023-09-18T04:41:48;15.50;1.00
38938;DHT22;24727;51.974;20.868;2023-09-18T04:44:14;15.50;1.00
38938;DHT22;24727;51.974;20.868;2023-09-18T04:46:40;15.50;1.00
38938;DHT22;24727;51.974;20.868;2023-09-18T04:49:09;15.50;1.00
38938;DHT22;24727;51.974;20.868;2023-09-18T04:51:37;15.50;1.00
38938;DHT22;24727;51.974;20.868;2023-09-18T04:54:05;15.50;1.00
38938;DHT22;24727;51.974;20.868;2023-09-18T04:56:36;15.50;1.00
38938;DHT22;24727;51.974;20.868;2023-09-18T04:59:03;15.50;1.00
38938;DHT22;24727;51.974;20.868;2023-09-18T05:01:30;15.50;1.00
38938;DHT22;24727;51.974;20.868;2023-09-18T05:03:58;15.50;1.00
38938;DHT22;24727;51.974;20.868;2023-09-18T05:06:24;15.60;1.00
38938;DHT22;24727;51.974;20.868;2023-09-18T05:08:51;15.50;1.00
38938;DHT22;24727;51.974;20.868;2023-09-18T05:11:17;15.60;1.00
38938;DHT22;24727;51.974;20.868;2023-09-18T05:13:44;15.60;1.00
38938;DHT22;24727;51.974;20.868;2023-09-18T05:16:10;15.60;1.00
38938;DHT22;24727;51.974;20.868;2023-09-18T05:18:36;15.60;1.00
38938;DHT22;24727;51.974;20.868;2023-09-18T05:21:04;15.60;1.00
38938;DHT22;24727;51.974;20.868;2023-09-18T05:23:30;15.70;1.00
38938;DHT22;24727;51.974;20.868;2023-09-18T05:25:56;15.70;1.00
38938;DHT22;24727;51.974;20.868;2023-09-18T05:28:23;15.80;1.00
38938;DHT22;24727;51.974;20.868;2023-09-18T05:30:49;15.80;1.00
38938;DHT22;24727;51.974;20.868;2023-09-18T05:33:15;15.90;1.00
38938;DHT22;24727;51.974;20.868;2023-09-18T05:35:43;15.90;1.00
38938;DHT22;24727;51.974;20.868;2023-09-18T05:38:11;15.90;1.00
38938;DHT22;24727;51.974;20.868;2023-09-18T05:40:39;16.00;1.00
38938;DHT22;24727;51.974;20.868;2023-09-18T05:43:06;16.10;1.00
38938;DHT22;24727;51.974;20.868;2023-09-18T05:45:33;16.10;1.00
38938;DHT22;24727;51.974;20.868;2023-09-18T05:47:59;16.20;1.00
38938;DHT22;24727;51.974;20.868;2023-09-18T05:50:32;16.30;1.00
38938;DHT22;24727;51.974;20.868;2023-09-18T05:52:59;16.30;1.00
38938;DHT22;24727;51.974;20.868;2023-09-18T05:55:27;16.50;1.00
38938;DHT22;24727;51.974;20.868;2023-09-18T05:57:54;16.70;1.00
38938;DHT22;24727;51.974;20.868;2023-09-18T06:00:20;17.10;1.00
38938;DHT22;24727;51.974;20.868;2023-09-18T06:02:47;17.40;1.00
38938;DHT22;24727;51.974;20.868;2023-09-18T06:05:13;17.60;1.00
38938;DHT22;24727;51.974;20.868;2023-09-18T06:07:42;17.80;1.00
38938;DHT22;24727;51.974;20.868;2023-09-18T06:10:08;17.90;1.00
38938;DHT22;24727;51.974;20.868;2023-09-18T06:12:34;18.20;1.00
38938;DHT22;24727;51.974;20.868;2023-09-18T06:15:00;18.40;1.00
38938;DHT22;24727;51.974;20.868;2023-09-18T06:17:26;18.60;1.00
38938;DHT22;24727;51.974;20.868;2023-09-18T06:19:53;18.70;1.00
38938;DHT22;24727;51.974;20.868;2023-09-18T06:22:19;18.70;1.00
38938;DHT22;24727;51.974;20.868;2023-09-18T06:24:45;18.70;1.00
38938;DHT22;24727;51.974;20.868;2023-09-18T06:27:12;18.70;1.00
38938;DHT22;24727;51.974;20.868;2023-09-18T06:29:38;18.80;1.00
38938;DHT22;24727;51.974;20.868;2023-09-18T06:32:07;19.00;1.00
38938;DHT22;24727;51.974;20.868;2023-09-18T06:34:33;19.20;1.00
38938;DHT22;24727;51.974;20.868;2023-09-18T06:37:00;19.40;1.00
38938;DHT22;24727;51.974;20.868;2023-09-18T06:39:25;19.70;1.00
38938;DHT22;24727;51.974;20.868;2023-09-18T06:41:51;19.80;1.00
38938;DHT22;24727;51.974;20.868;2023-09-18T06:44:18;20.00;1.00
38938;DHT22;24727;51.974;20.868;2023-09-18T06:46:44;20.20;1.00
38938;DHT22;24727;51.974;20.868;2023-09-18T06:49:10;20.30;1.00
38938;DHT22;24727;51.974;20.868;2023-09-18T06:51:36;20.40;1.00
38938;DHT22;24727;51.974;20.868;2023-09-18T06:54:02;20.50;1.00
38938;DHT22;24727;51.974;20.868;2023-09-18T06:56:28;20.70;1.00
38938;DHT22;24727;51.974;20.868;2023-09-18T06:58:54;20.80;1.00
38938;DHT22;24727;51.974;20.868;2023-09-18T07:01:22;20.90;1.00
38938;DHT22;24727;51.974;20.868;2023-09-18T07:03:50;21.10;1.00
38938;DHT22;24727;51.974;20.868;2023-09-18T07:06:17;21.20;1.00
38938;DHT22;24727;51.974;20.868;2023-09-18T07:08:46;21.20;1.00
38938;DHT22;24727;51.974;20.868;2023-09-18T07:11:16;21.30;1.00
38938;DHT22;24727;51.974;20.868;2023-09-18T07:13:43;21.30;1.00
38938;DHT22;24727;51.974;20.868;2023-09-18T07:16:09;21.40;1.00
38938;DHT22;24727;51.974;20.868;2023-09-18T07:18:35;21.70;1.00
38938;DHT22;24727;51.974;20.868;2023-09-18T07:21:01;21.80;1.00
38938;DHT22;24727;51.974;20.868;2023-09-18T07:23:28;22.00;1.00
38938;DHT22;24727;51.974;20.868;2023-09-18T07:25:55;22.10;1.00
38938;DHT22;24727;51.974;20.868;2023-09-18T07:28:21;22.30;1.00
38938;DHT22;24727;51.974;20.868;2023-09-18T07:30:47;22.30;1.00
38938;DHT22;24727;51.974;20.868;2023-09-18T07:33:14;22.20;1.00
38938;DHT22;24727;51.974;20.868;2023-09-18T07:35:49;22.30;1.00
38938;DHT22;24727;51.974;20.868;2023-09-18T07:38:18;22.50;1.00
38938;DHT22;24727;51.974;20.868;2023-09-18T07:40:47;22.60;1.00
38938;DHT22;24727;51.974;20.868;2023-09-18T07:43:14;22.70;1.00
38938;DHT22;24727;51.974;20.868;2023-09-18T07:45:40;22.80;1.00
38938;DHT22;24727;51.974;20.868;2023-09-18T07:48:07;23.00;1.00
38938;DHT22;24727;51.974;20.868;2023-09-18T07:50:36;23.20;1.00
38938;DHT22;24727;51.974;20.868;2023-09-18T07:53:02;23.30;1.00
38938;DHT22;24727;51.974;20.868;2023-09-18T07:55:29;23.40;1.00
38938;DHT22;24727;51.974;20.868;2023-09-18T07:57:56;23.60;1.00
38938;DHT22;24727;51.974;20.868;2023-09-18T08:00:24;23.60;1.00
38938;DHT22;24727;51.974;20.868;2023-09-18T08:02:55;23.80;1.00
38938;DHT22;24727;51.974;20.868;2023-09-18T08:05:27;24.00;1.00
38938;DHT22;24727;51.974;20.868;2023-09-18T08:07:56;24.20;1.00
38938;DHT22;24727;51.974;20.868;2023-09-18T08:10:23;24.20;1.00
38938;DHT22;24727;51.974;20.868;2023-09-18T08:12:49;24.30;1.00
38938;DHT22;24727;51.974;20.868;2023-09-18T08:15:20;24.30;1.00
38938;DHT22;24727;51.974;20.868;2023-09-18T08:17:47;24.40;1.00
38938;DHT22;24727;51.974;20.868;2023-09-18T08:20:16;24.40;1.00
38938;DHT22;24727;51.974;20.868;2023-09-18T08:22:43;24.50;1.00
38938;DHT22;24727;51.974;20.868;2023-09-18T08:25:16;24.40;1.00
38938;DHT22;24727;51.974;20.868;2023-09-18T08:27:42;24.60;1.00
38938;DHT22;24727;51.974;20.868;2023-09-18T08:30:10;24.60;1.00
38938;DHT22;24727;51.974;20.868;2023-09-18T08:32:37;24.60;1.00
38938;DHT22;24727;51.974;20.868;2023-09-18T08:35:04;24.40;1.00
38938;DHT22;24727;51.974;20.868;2023-09-18T08:37:30;24.20;1.00
38938;DHT22;24727;51.974;20.868;2023-09-18T08:39:56;24.40;1.00
38938;DHT22;24727;51.974;20.868;2023-09-18T08:42:25;24.50;1.00
38938;DHT22;24727;51.974;20.868;2023-09-18T08:44:54;24.60;1.00
38938;DHT22;24727;51.974;20.868;2023-09-18T08:47:22;24.70;1.00
38938;DHT22;24727;51.974;20.868;2023-09-18T08:49:50;24.70;1.00
38938;DHT22;24727;51.974;20.868;2023-09-18T08:52:17;24.70;1.00
38938;DHT22;24727;51.974;20.868;2023-09-18T08:54:43;24.70;1.00
38938;DHT22;24727;51.974;20.868;2023-09-18T08:57:10;24.60;1.00
38938;DHT22;24727;51.974;20.868;2023-09-18T08:59:39;24.60;1.00
38938;DHT22;24727;51.974;20.868;2023-09-18T09:02:07;24.80;1.00
38938;DHT22;24727;51.974;20.868;2023-09-18T09:04:38;24.90;1.00
38938;DHT22;24727;51.974;20.868;2023-09-18T09:07:11;24.90;1.00
38938;DHT22;24727;51.974;20.868;2023-09-18T09:09:39;24.80;1.00
38938;DHT22;24727;51.974;20.868;2023-09-18T09:12:08;25.10;1.00
38938;DHT22;24727;51.974;20.868;2023-09-18T09:14:33;25.40;1.00
38938;DHT22;24727;51.974;20.868;2023-09-18T09:17:00;25.50;1.00
38938;DHT22;24727;51.974;20.868;2023-09-18T09:19:31;25.80;1.00
38938;DHT22;24727;51.974;20.868;2023-09-18T09:21:58;26.20;1.00
38938;DHT22;24727;51.974;20.868;2023-09-18T09:24:44;26.20;1.00
38938;DHT22;24727;51.974;20.868;2023-09-18T09:27:11;26.40;1.00
38938;DHT22;24727;51.974;20.868;2023-09-18T09:29:38;26.30;1.00
38938;DHT22;24727;51.974;20.868;2023-09-18T09:32:17;26.20;1.00
38938;DHT22;24727;51.974;20.868;2023-09-18T09:34:44;26.30;1.00
38938;DHT22;24727;51.974;20.868;2023-09-18T09:37:10;25.80;1.00
38938;DHT22;24727;51.974;20.868;2023-09-18T09:39:51;26.10;1.00
38938;DHT22;24727;51.974;20.868;2023-09-18T09:42:19;26.30;1.00
38938;DHT22;24727;51.974;20.868;2023-09-18T09:45:11;26.00;1.00
38938;DHT22;24727;51.974;20.868;2023-09-18T09:47:38;25.80;1.00
38938;DHT22;24727;51.974;20.868;2023-09-18T09:50:15;25.90;1.00
38938;DHT22;24727;51.974;20.868;2023-09-18T09:52:50;25.70;1.00
38938;DHT22;24727;51.974;20.868;2023-09-18T09:55:24;25.40;1.00
38938;DHT22;24727;51.974;20.868;2023-09-18T09:57:53;25.30;1.00
38938;DHT22;24727;51.974;20.868;2023-09-18T10:00:20;25.20;1.00
38938;DHT22;24727;51.974;20.868;2023-09-18T10:03:03;25.60;1.00
38938;DHT22;24727;51.974;20.868;2023-09-18T10:05:34;26.10;1.00
38938;DHT22;24727;51.974;20.868;2023-09-18T10:08:22;26.30;1.00
38938;DHT22;24727;51.974;20.868;2023-09-18T10:10:54;26.30;1.00
38938;DHT22;24727;51.974;20.868;2023-09-18T10:13:41;26.30;1.00
38938;DHT22;24727;51.974;20.868;2023-09-18T10:16:10;26.60;1.00
38938;DHT22;24727;51.974;20.868;2023-09-18T10:19:01;26.80;1.00
38938;DHT22;24727;51.974;20.868;2023-09-18T10:24:34;27.00;1.00
38938;DHT22;24727;51.974;20.868;2023-09-18T10:27:04;26.80;1.00
38938;DHT22;24727;51.974;20.868;2023-09-18T10:29:36;27.00;1.00
38938;DHT22;24727;51.974;20.868;2023-09-18T10:32:06;27.20;1.00
38938;DHT22;24727;51.974;20.868;2023-09-18T10:34:35;27.30;1.00
38938;DHT22;24727;51.974;20.868;2023-09-18T10:37:03;27.20;1.00
38938;DHT22;24727;51.974;20.868;2023-09-18T10:39:43;26.90;1.00
38938;DHT22;24727;51.974;20.868;2023-09-18T10:42:12;26.60;1.00
38938;DHT22;24727;51.974;20.868;2023-09-18T10:44:40;26.60;1.00
38938;DHT22;24727;51.974;20.868;2023-09-18T10:47:10;26.80;1.00
38938;DHT22;24727;51.974;20.868;2023-09-18T10:49:36;26.70;1.00
38938;DHT22;24727;51.974;20.868;2023-09-18T10:52:02;26.30;1.00
38938;DHT22;24727;51.974;20.868;2023-09-18T10:54:32;26.20;1.00
38938;DHT22;24727;51.974;20.868;2023-09-18T10:56:59;26.30;1.00
38938;DHT22;24727;51.974;20.868;2023-09-18T10:59:27;26.30;1.00
38938;DHT22;24727;51.974;20.868;2023-09-18T11:01:55;26.10;1.00
38938;DHT22;24727;51.974;20.868;2023-09-18T11:04:23;26.30;1.00
38938;DHT22;24727;51.974;20.868;2023-09-18T11:09:23;26.30;1.00
38938;DHT22;24727;51.974;20.868;2023-09-18T11:14:50;26.20;1.00
38938;DHT22;24727;51.974;20.868;2023-09-18T11:20:20;25.60;1.00
38938;DHT22;24727;51.974;20.868;2023-09-18T11:22:56;25.70;1.00
38938;DHT22;24727;51.974;20.868;2023-09-18T11:25:36;26.00;1.00
38938;DHT22;24727;51.974;20.868;2023-09-18T11:28:13;25.90;1.00
38938;DHT22;24727;51.974;20.868;2023-09-18T11:30:52;26.10;1.00
38938;DHT22;24727;51.974;20.868;2023-09-18T11:33:37;26.00;1.00
38938;DHT22;24727;51.974;20.868;2023-09-18T11:36:31;26.00;1.00
38938;DHT22;24727;51.974;20.868;2023-09-18T11:38:59;25.90;1.00
38938;DHT22;24727;51.974;20.868;2023-09-18T11:41:34;25.70;1.00
38938;DHT22;24727;51.974;20.868;2023-09-18T11:46:45;25.50;1.00
38938;DHT22;24727;51.974;20.868;2023-09-18T11:49:11;25.70;1.00
38938;DHT22;24727;51.974;20.868;2023-09-18T11:51:38;26.10;1.00
38938;DHT22;24727;51.974;20.868;2023-09-18T11:54:07;26.10;1.00
38938;DHT22;24727;51.974;20.868;2023-09-18T11:56:33;26.20;1.00
38938;DHT22;24727;51.974;20.868;2023-09-18T11:59:00;26.30;1.00
38938;DHT22;24727;51.974;20.868;2023-09-18T12:01:30;26.30;1.00
38938;DHT22;24727;51.974;20.868;2023-09-18T12:04:03;25.90;1.00
38938;DHT22;24727;51.974;20.868;2023-09-18T12:06:40;25.90;1.00
38938;DHT22;24727;51.974;20.868;2023-09-18T12:09:07;25.80;1.00
38938;DHT22;24727;51.974;20.868;2023-09-18T12:11:33;25.70;1.00
38938;DHT22;24727;51.974;20.868;2023-09-18T12:14:07;25.80;1.00
38938;DHT22;24727;51.974;20.868;2023-09-18T12:16:39;25.80;1.00
38938;DHT22;24727;51.974;20.868;2023-09-18T12:19:07;26.20;1.00
38938;DHT22;24727;51.974;20.868;2023-09-18T12:21:40;26.30;1.00
38938;DHT22;24727;51.974;20.868;2023-09-18T12:24:06;26.30;1.00
38938;DHT22;24727;51.974;20.868;2023-09-18T12:26:32;26.20;1.00
38938;DHT22;24727;51.974;20.868;2023-09-18T12:28:59;26.10;99.90
38938;DHT22;24727;51.974;20.868;2023-09-18T12:31:26;26.30;1.00
38938;DHT22;24727;51.974;20.868;2023-09-18T12:33:52;26.60;1.00
38938;DHT22;24727;51.974;20.868;2023-09-18T12:36:21;26.80;1.00
38938;DHT22;24727;51.974;20.868;2023-09-18T12:38:57;26.80;1.00
38938;DHT22;24727;51.974;20.868;2023-09-18T12:41:25;26.90;1.00
38938;DHT22;24727;51.974;20.868;2023-09-18T12:43:51;26.90;1.00
38938;DHT22;24727;51.974;20.868;2023-09-18T12:46:19;26.90;99.90
38938;DHT22;24727;51.974;20.868;2023-09-18T12:48:47;26.80;1.00
38938;DHT22;24727;51.974;20.868;2023-09-18T12:51:13;26.50;1.00
38938;DHT22;24727;51.974;20.868;2023-09-18T12:53:40;26.50;1.00
38938;DHT22;24727;51.974;20.868;2023-09-18T12:56:14;26.40;1.00
38938;DHT22;24727;51.974;20.868;2023-09-18T12:58:41;26.30;1.00
38938;DHT22;24727;51.974;20.868;2023-09-18T13:01:08;26.30;1.00
38938;DHT22;24727;51.974;20.868;2023-09-18T13:03:42;26.30;1.00
38938;DHT22;24727;51.974;20.868;2023-09-18T13:06:10;26.10;1.00
38938;DHT22;24727;51.974;20.868;2023-09-18T13:08:37;26.20;1.40
38938;DHT22;24727;51.974;20.868;2023-09-18T13:11:03;26.20;1.00
38938;DHT22;24727;51.974;20.868;2023-09-18T13:13:30;26.20;1.00
38938;DHT22;24727;51.974;20.868;2023-09-18T13:16:00;26.20;1.00
38938;DHT22;24727;51.974;20.868;2023-09-18T13:18:30;26.30;1.00
38938;DHT22;24727;51.974;20.868;2023-09-18T13:20:58;26.50;1.00
38938;DHT22;24727;51.974;20.868;2023-09-18T13:23:29;26.40;1.00
38938;DHT22;24727;51.974;20.868;2023-09-18T13:26:03;26.40;1.00
38938;DHT22;24727;51.974;20.868;2023-09-18T13:28:30;26.30;1.00
38938;DHT22;24727;51.974;20.868;2023-09-18T13:30:58;26.20;1.00
38938;DHT22;24727;51.974;20.868;2023-09-18T13:33:30;26.20;1.00
38938;DHT22;24727;51.974;20.868;2023-09-18T13:35:58;26.20;1.00
38938;DHT22;24727;51.974;20.868;2023-09-18T13:38:25;26.40;1.00
38938;DHT22;24727;51.974;20.868;2023-09-18T13:40:53;26.40;1.00
38938;DHT22;24727;51.974;20.868;2023-09-18T13:43:22;26.40;1.00
38938;DHT22;24727;51.974;20.868;2023-09-18T13:45:49;26.60;1.00
38938;DHT22;24727;51.974;20.868;2023-09-18T13:48:18;26.60;1.00
38938;DHT22;24727;51.974;20.868;2023-09-18T13:50:44;26.70;1.00
38938;DHT22;24727;51.974;20.868;2023-09-18T13:53:12;26.70;1.00
38938;DHT22;24727;51.974;20.868;2023-09-18T13:55:38;26.60;1.00
38938;DHT22;24727;51.974;20.868;2023-09-18T13:58:04;26.40;1.00
38938;DHT22;24727;51.974;20.868;2023-09-18T14:00:30;26.40;1.00
38938;DHT22;24727;51.974;20.868;2023-09-18T14:02:57;26.20;1.00
38938;DHT22;24727;51.974;20.868;2023-09-18T14:05:23;26.20;1.00
38938;DHT22;24727;51.974;20.868;2023-09-18T14:07:48;26.00;1.00
38938;DHT22;24727;51.974;20.868;2023-09-18T14:10:16;26.00;1.00
38938;DHT22;24727;51.974;20.868;2023-09-18T14:12:45;26.10;1.00
38938;DHT22;24727;51.974;20.868;2023-09-18T14:15:13;26.20;1.00
38938;DHT22;24727;51.974;20.868;2023-09-18T14:17:39;26.30;1.00
38938;DHT22;24727;51.974;20.868;2023-09-18T14:20:06;26.30;1.00
38938;DHT22;24727;51.974;20.868;2023-09-18T14:22:34;26.20;1.00
38938;DHT22;24727;51.974;20.868;2023-09-18T14:25:00;26.30;1.00
38938;DHT22;24727;51.974;20.868;2023-09-18T14:27:30;26.30;1.00
38938;DHT22;24727;51.974;20.868;2023-09-18T14:29:56;26.40;1.00
38938;DHT22;24727;51.974;20.868;2023-09-18T14:32:23;26.40;1.00
38938;DHT22;24727;51.974;20.868;2023-09-18T14:34:49;26.40;1.00
38938;DHT22;24727;51.974;20.868;2023-09-18T14:37:16;26.40;1.00
38938;DHT22;24727;51.974;20.868;2023-09-18T14:39:42;26.40;1.00
38938;DHT22;24727;51.974;20.868;2023-09-18T14:42:08;26.50;1.00
38938;DHT22;24727;51.974;20.868;2023-09-18T14:44:36;26.40;1.00
38938;DHT22;24727;51.974;20.868;2023-09-18T14:47:06;26.30;1.00
38938;DHT22;24727;51.974;20.868;2023-09-18T14:49:32;26.30;1.00
38938;DHT22;24727;51.974;20.868;2023-09-18T14:51:59;26.20;1.00
38938;DHT22;24727;51.974;20.868;2023-09-18T14:54:26;25.90;1.00
38938;DHT22;24727;51.974;20.868;2023-09-18T14:56:52;25.80;1.00
38938;DHT22;24727;51.974;20.868;2023-09-18T14:59:18;25.80;1.00
38938;DHT22;24727;51.974;20.868;2023-09-18T15:01:45;25.70;1.00
38938;DHT22;24727;51.974;20.868;2023-09-18T15:04:13;25.70;1.00
38938;DHT22;24727;51.974;20.868;2023-09-18T15:06:40;25.60;1.00
38938;DHT22;24727;51.974;20.868;2023-09-18T15:09:07;25.60;1.00
38938;DHT22;24727;51.974;20.868;2023-09-18T15:11:34;25.50;1.00
38938;DHT22;24727;51.974;20.868;2023-09-18T15:14:03;25.50;1.00
38938;DHT22;24727;51.974;20.868;2023-09-18T15:16:29;25.50;1.00
38938;DHT22;24727;51.974;20.868;2023-09-18T15:19:02;25.50;1.00
38938;DHT22;24727;51.974;20.868;2023-09-18T15:21:30;25.50;1.00
38938;DHT22;24727;51.974;20.868;2023-09-18T15:23:57;25.60;1.00
38938;DHT22;24727;51.974;20.868;2023-09-18T15:26:24;25.50;1.00
38938;DHT22;24727;51.974;20.868;2023-09-18T15:28:52;25.50;1.00
38938;DHT22;24727;51.974;20.868;2023-09-18T15:31:18;25.30;1.00
38938;DHT22;24727;51.974;20.868;2023-09-18T15:33:45;25.30;1.00
38938;DHT22;24727;51.974;20.868;2023-09-18T15:36:12;25.30;1.00
38938;DHT22;24727;51.974;20.868;2023-09-18T15:38:39;25.30;1.00
38938;DHT22;24727;51.974;20.868;2023-09-18T15:41:05;25.30;1.00
38938;DHT22;24727;51.974;20.868;2023-09-18T15:43:33;25.20;1.00
38938;DHT22;24727;51.974;20.868;2023-09-18T15:46:00;25.10;1.00
38938;DHT22;24727;51.974;20.868;2023-09-18T15:48:27;25.10;1.00
38938;DHT22;24727;51.974;20.868;2023-09-18T15:50:54;25.00;1.00
38938;DHT22;24727;51.974;20.868;2023-09-18T15:53:20;25.00;1.00